Buffalo, Kansas
Current Conditions -  °F | °C
As of 4:52 AM on Monday 22 Dec 2014 (Local Time) from KCNU Reporting Station
Haze Haze  
Wind Chill: 40°   Ceiling: 700
Heat Index: 44°   Visibility: 3mi
Dew Point: 43°   Wind: 8mph
Humidity: 96%   Direction: 150°SSE
Pressure: 29.61"   Gusts: NA
Location:  37.71°N, 95.7°W
Report Text: KCNU 221052Z AUTO 15007KT 3SM BR OVC007 07/06 A2961 RMK AO2 CIG 004V010 SLP027 T00670061
Loading
Personal Weather Stations






























Interactive Weather Map New forecast layout! Learn more

10-Day Weather Forecast

Advertisements
Track Severe Weather on mobile